Terminal Aerodrome Forecast
Issued by NWS

Home | Current Version | Previous Version | Graphics & Text | Print | Product List | Glossary On
Versions: 1 2 3 4 5 6 7 8 9 10 11 12 13 14 15 16
965
FTUS42 KMHX 060536
TAFPGV
TAF
KPGV 060536Z 0606/0706 00000KT P6SM FEW250
      TEMPO 0608/0612 4SM BR SCT001
     FM061600 03005KT P6SM SCT070 SCT250
     FM062300 04004KT P6SM BKN070
      AMD LTD TO CLD VIS AND WIND=

USA.gov is the U.S. government's official web portal to all federal, state and local government web resources and services.